Time;durP1;ratioP1;P1;durP2;ratioP2;P2;SDS_P1;SDS_P2;PMS_P1;PMS_P2;Temp;Humidity;BMP_temperature;BMP_pressure;BME280_temperature;BME280_humidity;BME280_pressure;Samples;Min_cycle;Max_cycle;Signal;HPM_P1;HPM_P2
2022/06/17 00:00:51;;;;;;;5.00;4.80;;;;;;;14.73;81.73;101863.38;6057045;23;20026;-67
2022/06/17 00:03:18;;;;;;;6.65;6.35;;;;;;;14.86;82.91;101890.03;6048298;23;20057;-67
2022/06/17 00:05:45;;;;;;;5.30;5.10;;;;;;;13.62;83.24;101703.47;6053890;23;20029;-67
2022/06/17 00:08:17;;;;;;;6.30;6.00;;;;;;;14.71;82.76;101877.59;6048598;23;20361;-67
2022/06/17 00:10:44;;;;;;;4.90;4.70;;;;;;;14.69;83.04;101887.38;6087998;23;20040;-67
2022/06/17 00:13:13;;;;;;;6.75;6.45;;;;;;;14.65;83.94;101888.47;6047822;23;20622;-67
2022/06/17 00:15:40;;;;;;;5.30;5.00;;;;;;;14.61;83.72;101882.47;6079871;23;20471;-67
2022/06/17 00:18:07;;;;;;;5.82;5.53;;;;;;;14.43;83.51;101871.00;6054003;23;20041;-67
2022/06/17 00:20:34;;;;;;;5.38;5.10;;;;;;;14.29;84.51;101860.28;6079683;23;21028;-67
2022/06/17 00:23:02;;;;;;;5.00;4.80;;;;;;;14.25;85.23;101896.56;6047205;23;20022;-67
2022/06/17 00:25:35;;;;;;;5.20;4.90;;;;;;;14.01;85.37;101837.00;6075099;23;20052;-67
2022/06/17 00:28:01;;;;;;;;;;;;;;;14.27;84.36;101886.78;6050998;23;20022;-67
2022/06/17 00:30:30;;;;;;;5.40;5.20;;;;;;;14.17;84.63;101885.47;6076667;23;19977;-67
2022/06/17 00:33:00;;;;;;;4.70;4.50;;;;;;;14.07;85.15;101878.94;6045537;23;20014;-67
2022/06/17 00:35:31;;;;;;;5.00;4.80;;;;;;;14.02;85.52;101880.97;6081028;23;20135;-67
2022/06/17 00:37:59;;;;;;;5.30;5.10;;;;;;;14.00;86.66;101875.75;6046244;23;20417;-67
2022/06/17 00:40:28;;;;;;;5.20;5.00;;;;;;;13.98;87.38;101872.31;6073154;23;20142;-69
2022/06/17 00:42:55;;;;;;;5.03;4.82;;;;;;;12.98;88.45;101713.47;6044027;23;20014;-67
2022/06/17 00:45:29;;;;;;;5.47;5.22;;;;;;;13.99;88.44;101889.00;6080142;23;20092;-68
2022/06/17 00:48:06;;;;;;;4.80;4.60;;;;;;;14.00;88.17;101888.94;6053693;23;20046;-68
2022/06/17 00:50:38;;;;;;;4.90;4.70;;;;;;;13.99;88.75;101881.94;6080585;23;20045;-67
2022/06/17 00:53:19;;;;;;;5.45;5.22;;;;;;;13.82;89.09;101866.91;6052181;23;20242;-68
2022/06/17 00:55:53;;;;;;;5.43;5.13;;;;;;;14.01;88.91;101897.72;6040819;23;20018;-67
2022/06/17 00:58:31;;;;;;;6.75;6.45;;;;;;;14.03;88.70;101893.22;6073638;23;20074;-67
2022/06/17 01:01:01;;;;;;;4.90;4.70;;;;;;;14.02;89.17;101891.53;6064700;23;20019;-66
2022/06/17 01:03:35;;;;;;;5.10;4.85;;;;;;;14.02;89.38;101883.59;6047744;23;20507;-69
2022/06/17 01:06:08;;;;;;;4.80;4.60;;;;;;;14.04;89.02;101881.75;6053134;23;20023;-66
2022/06/17 01:11:34;;;;;;;5.00;4.80;;;;;;;14.01;89.70;101885.41;6074272;23;20457;-68
2022/06/17 01:14:05;;;;;;;4.80;4.60;;;;;;;13.99;90.73;101889.00;6052852;23;20061;-69
2022/06/17 01:16:36;;;;;;;5.30;5.00;;;;;;;13.99;91.10;101897.78;6079714;23;20442;-69
2022/06/17 01:19:31;;;;;;;4.97;4.78;;;;;;;13.85;91.16;101869.44;6044789;23;20046;-66
2022/06/17 01:22:26;;;;;;;5.00;4.80;;;;;;;14.03;91.28;101902.00;6082734;23;20355;-69
2022/06/17 01:25:21;;;;;;;5.20;5.00;;;;;;;14.05;91.76;101905.44;6047402;23;20353;-67
2022/06/17 01:27:55;;;;;;;5.53;5.10;;;;;;;13.74;91.12;101847.97;6076867;23;20022;-68
2022/06/17 01:30:31;;;;;;;7.25;6.75;;;;;;;14.06;91.83;101914.19;6044035;23;20030;-68
2022/06/17 01:33:04;;;;;;;4.70;4.50;;;;;;;13.88;92.59;101878.97;6076110;23;20548;-66
2022/06/17 01:35:35;;;;;;;4.90;4.70;;;;;;;14.01;92.78;101908.28;6030156;23;20030;-67
2022/06/17 01:38:02;;;;;;;4.80;4.60;;;;;;;13.95;92.73;101918.22;6080287;23;20078;-66
2022/06/17 01:40:29;;;;;;;5.30;5.00;;;;;;;13.91;93.18;101910.47;6046769;23;20030;-67
2022/06/17 01:43:08;;;;;;;5.03;4.82;;;;;;;13.87;92.88;101909.78;6059204;23;20504;-67
2022/06/17 01:45:41;;;;;;;5.15;4.93;;;;;;;13.83;93.30;101908.22;6045632;23;20052;-67
2022/06/17 01:48:09;;;;;;;6.43;6.05;;;;;;;13.72;93.77;101898.16;6080135;23;20005;-64
2022/06/17 01:50:36;;;;;;;5.53;5.30;;;;;;;13.77;93.64;101908.47;6061741;23;20022;-66
2022/06/17 01:53:08;;;;;;;4.82;4.63;;;;;;;13.55;93.99;101879.59;6051133;23;20510;-67
2022/06/17 01:55:41;;;;;;;5.00;4.80;;;;;;;13.63;94.13;101884.53;6086494;23;20486;-67
2022/06/17 01:58:16;;;;;;;;;;;;;;;13.73;94.11;101896.34;6051983;23;20362;-66
2022/06/17 02:00:43;;;;;;;4.60;4.40;;;;;;;13.50;94.18;101879.81;6048027;23;19906;-66
2022/06/17 02:03:18;;;;;;;5.97;5.68;;;;;;;13.71;94.75;101890.28;6054820;23;20030;-66
2022/06/17 02:05:50;;;;;;;5.03;4.80;;;;;;;13.63;95.18;101888.03;6081431;23;20022;-67
2022/06/17 02:08:17;;;;;;;6.70;6.40;;;;;;;13.51;96.09;101867.47;6046937;23;20194;-67
2022/06/17 02:10:47;;;;;;;4.70;4.50;;;;;;;13.62;97.44;101901.28;6081936;23;20030;-69
2022/06/17 02:13:14;;;;;;;5.97;5.68;;;;;;;13.22;97.45;101829.22;6049938;23;20471;-66
2022/06/17 02:15:44;;;;;;;4.60;4.40;;;;;;;13.35;97.41;101862.06;6080408;23;20029;-67
2022/06/17 02:18:16;;;;;;;5.78;5.50;;;;;;;13.57;97.12;101898.88;6050375;23;20014;-66
2022/06/17 02:20:47;;;;;;;4.57;4.38;;;;;;;13.34;97.04;101857.72;6077746;23;20017;-66
2022/06/17 02:23:13;;;;;;;6.18;5.88;;;;;;;13.51;97.07;101899.13;6052717;23;20089;-67
2022/06/17 02:25:45;;;;;;;4.70;4.50;;;;;;;13.46;97.02;101903.75;6080039;23;20507;-67
2022/06/17 02:28:12;;;;;;;4.90;4.70;;;;;;;13.34;96.55;101902.53;6062980;23;20321;-66
2022/06/17 02:30:42;;;;;;;4.80;4.60;;;;;;;13.36;99.07;101917.34;6080071;23;20051;-67
2022/06/17 02:33:10;;;;;;;6.00;5.70;;;;;;;13.33;99.37;101914.88;6041416;23;20019;-66
2022/06/17 02:35:49;;;;;;;4.97;4.72;;;;;;;13.29;100.00;101909.75;6055018;23;20165;-67
2022/06/17 02:38:19;;;;;;;6.07;5.78;;;;;;;13.05;100.00;101880.91;6047377;23;20061;-66
2022/06/17 02:40:50;;;;;;;4.97;4.78;;;;;;;13.30;100.00;101922.03;6090611;23;20042;-67
2022/06/17 02:43:23;;;;;;;5.97;5.68;;;;;;;13.25;100.00;101924.88;6078336;23;20034;-66
2022/06/17 02:45:53;;;;;;;5.05;4.75;;;;;;;13.08;100.00;101890.47;6055184;23;20023;-67
2022/06/17 02:48:26;;;;;;;6.22;5.93;;;;;;;13.21;100.00;101922.41;6081249;23;20086;-67
2022/06/17 02:50:55;;;;;;;4.95;4.75;;;;;;;13.02;100.00;101909.19;6064179;23;20014;-66
2022/06/17 02:53:28;;;;;;;11.07;10.52;;;;;;;13.17;100.00;101940.16;5940438;23;20231;-67
2022/06/17 02:55:57;;;;;;;4.60;4.40;;;;;;;12.91;100.00;101910.50;6061684;23;20489;-67
2022/06/17 02:58:43;;;;;;;5.93;5.63;;;;;;;13.06;100.00;101934.47;6051688;23;20129;-66
2022/06/17 03:01:23;;;;;;;6.10;5.80;;;;;;;12.82;100.00;101902.97;6060132;23;20500;-72
2022/06/17 03:03:52;;;;;;;4.75;4.55;;;;;;;12.70;100.00;101899.06;6055417;23;20040;-70
2022/06/17 03:06:25;;;;;;;6.18;5.88;;;;;;;12.81;100.00;101921.47;6078235;23;20020;-69
2022/06/17 03:08:54;;;;;;;5.25;4.95;;;;;;;12.66;100.00;101892.22;6051083;23;20039;-66
2022/06/17 03:11:21;;;;;;;5.97;5.68;;;;;;;12.98;100.00;101929.53;6044072;23;20030;-69
2022/06/17 03:13:55;;;;;;;5.00;4.80;;;;;;;12.93;100.00;101927.09;6047358;23;20097;-65
2022/06/17 03:16:23;;;;;;;5.20;5.00;;;;;;;12.96;100.00;101926.09;6033170;23;20179;-67
2022/06/17 03:18:52;;;;;;;4.63;4.43;;;;;;;12.88;100.00;101915.88;6084346;23;20089;-67
2022/06/17 03:21:23;;;;;;;6.38;6.07;;;;;;;12.87;100.00;101911.56;6050070;23;20018;-66
2022/06/17 03:24:11;;;;;;;4.70;4.50;;;;;;;12.97;100.00;101928.69;6081924;23;20025;-67
2022/06/17 03:26:47;;;;;;;4.60;4.40;;;;;;;13.03;100.00;101926.69;6012605;23;20247;-67
2022/06/17 03:29:18;;;;;;;6.38;6.07;;;;;;;13.07;100.00;101920.38;6076461;23;20096;-67
2022/06/17 03:32:03;;;;;;;5.05;4.85;;;;;;;13.14;100.00;101924.47;6079968;23;20061;-67
2022/06/17 03:34:36;;;;;;;4.90;4.70;;;;;;;13.21;100.00;101935.59;6074287;23;20084;-66
2022/06/17 03:37:17;;;;;;;4.70;4.50;;;;;;;13.25;100.00;101938.03;6057362;23;20038;-66
2022/06/17 03:40:05;;;;;;;4.60;4.40;;;;;;;12.20;98.59;101765.16;6041770;23;20354;-69
2022/06/17 03:42:41;;;;;;;4.78;4.57;;;;;;;13.22;98.26;101938.16;6059686;23;20072;-67
2022/06/17 03:45:18;;;;;;;5.15;4.88;;;;;;;13.22;98.34;101940.78;6054733;23;20093;-74
2022/06/17 03:48:28;;;;;;;4.90;4.70;;;;;;;13.16;98.67;101930.53;6077627;23;20017;-66
2022/06/17 03:50:55;;;;;;;5.38;5.07;;;;;;;13.09;98.68;101929.94;6018857;23;20468;-71
2022/06/17 03:53:36;;;;;;;5.75;5.45;;;;;;;13.06;98.10;101930.06;6070400;23;20627;-74
2022/06/17 03:56:14;;;;;;;4.55;4.35;;;;;;;12.96;99.60;101918.19;6019067;23;20044;-73
2022/06/17 03:58:43;;;;;;;4.60;4.40;;;;;;;13.18;99.49;101939.22;6082329;23;20051;-68
2022/06/17 04:01:41;;;;;;;5.85;5.57;;;;;;;13.30;99.69;101946.63;6042995;23;20105;-71
2022/06/17 04:04:25;;;;;;;5.60;5.30;;;;;;;13.26;98.93;101915.16;6078498;23;20075;-66
2022/06/17 04:06:55;;;;;;;4.80;4.60;;;;;;;13.43;98.01;101923.22;6053798;23;20107;-68
2022/06/17 04:09:27;;;;;;;5.85;5.55;;;;;;;13.95;98.30;101938.44;6071960;23;20097;-71
2022/06/17 04:11:59;;;;;;;4.95;4.75;;;;;;;14.67;93.64;101916.53;6047585;23;20089;-71
2022/06/17 04:14:58;;;;;;;5.10;4.90;;;;;;;15.90;85.38;101948.97;6078354;23;20017;-74
2022/06/17 04:17:48;;;;;;;5.20;5.00;;;;;;;16.38;79.37;101941.00;6020108;23;20015;-73
2022/06/17 04:20:26;;;;;;;5.50;5.20;;;;;;;16.20;79.14;101951.72;6058460;23;20138;-66
2022/06/17 04:22:56;;;;;;;5.50;5.20;;;;;;;16.30;78.54;101942.31;6050153;23;20118;-68
2022/06/17 04:25:47;;;;;;;5.85;5.55;;;;;;;17.01;76.77;101971.88;6053309;23;20014;-68
2022/06/17 04:28:18;;;;;;;6.75;6.45;;;;;;;17.46;73.58;101955.00;6046234;23;20041;-68
2022/06/17 04:30:49;;;;;;;5.57;5.20;;;;;;;17.96;70.63;101947.53;6078163;23;20033;-69
2022/06/17 04:33:34;;;;;;;7.03;6.72;;;;;;;18.67;68.52;101967.69;6050202;23;20021;-67
2022/06/17 04:36:09;;;;;;;5.47;5.18;;;;;;;19.35;65.98;101965.00;6057241;23;20026;-66
2022/06/17 04:38:57;;;;;;;5.90;5.60;;;;;;;19.97;63.13;101934.91;6019957;23;20018;-67
2022/06/17 04:41:30;;;;;;;6.40;6.10;;;;;;;20.15;61.62;101965.53;6041682;23;20284;-67
2022/06/17 04:43:58;;;;;;;6.00;5.60;;;;;;;20.51;59.26;101963.81;6017120;23;20440;-67
2022/06/17 04:46:35;;;;;;;6.10;5.80;;;;;;;20.40;58.39;101934.41;6053801;23;20374;-74
2022/06/17 04:49:04;;;;;;;5.88;5.57;;;;;;;19.38;58.72;101843.16;6023922;23;20060;-73
2022/06/17 04:51:34;;;;;;;6.28;5.97;;;;;;;20.23;59.35;101962.31;6030873;23;20312;-71
2022/06/17 04:54:03;;;;;;;6.55;5.93;;;;;;;20.24;59.59;101956.00;6029294;23;20036;-72
2022/06/17 04:56:33;;;;;;;5.85;5.55;;;;;;;20.44;57.44;101928.72;6046076;23;20101;-67
2022/06/17 04:59:00;;;;;;;6.82;6.43;;;;;;;20.95;55.38;101946.31;6019875;23;20025;-67
2022/06/17 05:01:28;;;;;;;6.85;6.35;;;;;;;21.11;56.06;101967.34;6051649;23;20463;-70
2022/06/17 05:04:01;;;;;;;5.47;5.22;;;;;;;21.40;55.76;101929.50;6014125;23;20019;-72
2022/06/17 05:06:28;;;;;;;6.63;6.22;;;;;;;21.83;53.88;101968.84;6034935;23;20023;-67
2022/06/17 05:09:04;;;;;;;6.18;5.88;;;;;;;21.88;54.99;101972.03;6024166;23;20030;-67
2022/06/17 05:11:39;;;;;;;6.00;5.70;;;;;;;22.18;50.86;101903.69;6042101;23;20455;-68
2022/06/17 05:14:30;;;;;;;6.15;5.85;;;;;;;23.19;49.05;101974.66;6017882;23;20022;-67
2022/06/17 05:16:57;;;;;;;6.43;6.07;;;;;;;23.12;47.82;101963.63;6022246;23;20037;-72
2022/06/17 05:19:23;;;;;;;6.78;6.47;;;;;;;22.92;49.87;101956.44;6021869;23;20027;-69
2022/06/17 05:21:50;;;;;;;6.10;5.70;;;;;;;22.89;49.04;101965.53;6052250;23;20059;-67
2022/06/17 05:24:16;;;;;;;5.90;5.60;;;;;;;22.33;50.28;101941.69;6027600;23;20038;-70
2022/06/17 05:26:43;;;;;;;5.70;5.40;;;;;;;22.82;50.16;101953.69;6058305;23;20019;-73
2022/06/17 05:29:09;;;;;;;6.32;5.90;;;;;;;23.01;48.07;101964.53;6013886;23;20124;-67
2022/06/17 05:31:36;;;;;;;6.53;6.15;;;;;;;22.64;49.27;101951.56;6057086;23;20330;-70
2022/06/17 05:34:04;;;;;;;6.20;5.80;;;;;;;22.66;50.09;101952.28;6054926;23;20101;-74
2022/06/17 05:36:31;;;;;;;5.90;5.60;;;;;;;22.23;51.07;101976.34;6035470;23;20506;-71
2022/06/17 05:38:58;;;;;;;6.00;5.70;;;;;;;22.73;49.69;101949.09;6056016;23;20467;-75
2022/06/17 05:41:24;;;;;;;5.88;5.57;;;;;;;22.98;48.39;101953.22;6045903;23;20416;-67
2022/06/17 05:43:52;;;;;;;5.63;5.38;;;;;;;23.65;47.21;101957.28;6038517;23;20014;-67
2022/06/17 05:46:18;;;;;;;7.03;6.63;;;;;;;23.01;48.12;101951.16;6083940;23;20030;-67
2022/06/17 05:48:45;;;;;;;5.72;5.43;;;;;;;23.21;48.38;101945.91;6047675;23;20047;-67
2022/06/17 05:51:13;;;;;;;7.15;6.75;;;;;;;23.15;47.70;101925.88;6075392;23;20009;-67
2022/06/17 05:53:40;;;;;;;5.93;5.63;;;;;;;23.14;47.68;101929.53;6053085;23;20545;-67
2022/06/17 05:56:06;;;;;;;5.78;5.47;;;;;;;22.92;48.23;101935.84;6077050;23;20022;-68
2022/06/17 05:58:33;;;;;;;6.10;5.63;;;;;;;22.35;50.56;101945.09;6054540;23;20096;-67
2022/06/17 06:00:59;;;;;;;6.03;5.72;;;;;;;21.66;51.96;101946.16;6084434;23;20101;-67
2022/06/17 06:03:28;;;;;;;6.10;5.70;;;;;;;21.43;54.28;101945.28;6046408;23;20108;-67
2022/06/17 06:05:55;;;;;;;5.80;5.50;;;;;;;20.84;54.18;101885.72;6085857;23;20026;-67
2022/06/17 06:08:22;;;;;;;7.25;6.85;;;;;;;20.58;56.12;101948.19;6049748;23;20455;-67
2022/06/17 06:10:49;;;;;;;5.82;5.53;;;;;;;20.39;57.23;101946.06;6087324;23;20464;-67
2022/06/17 06:13:18;;;;;;;7.88;7.20;;;;;;;19.79;59.00;101895.31;6051529;23;20069;-67
2022/06/17 06:15:49;;;;;;;6.03;5.72;;;;;;;19.77;59.97;101939.00;6063101;23;20025;-72
2022/06/17 06:18:22;;;;;;;7.18;6.80;;;;;;;18.97;62.08;101870.88;6052817;23;20021;-69
2022/06/17 06:20:50;;;;;;;5.63;5.40;;;;;;;19.53;61.98;101929.09;6042138;23;20456;-67
2022/06/17 06:23:20;;;;;;;7.05;6.75;;;;;;;19.69;62.11;101904.88;6072902;23;20502;-69
2022/06/17 06:25:47;;;;;;;6.32;5.93;;;;;;;19.71;59.14;101761.84;6052998;23;20018;-67
2022/06/17 06:28:19;;;;;;;7.63;7.22;;;;;;;21.32;56.58;101917.59;6073430;23;20073;-67
2022/06/17 06:30:54;;;;;;;;;;;;;;;20.84;57.15;101917.75;6050824;23;20483;-67
2022/06/17 06:33:21;;;;;;;7.38;6.80;;;;;;;20.40;57.65;101895.25;6079371;23;20304;-67
2022/06/17 06:35:47;;;;;;;5.82;5.53;;;;;;;20.01;60.12;101883.09;6056828;23;20014;-66
2022/06/17 06:38:14;;;;;;;7.03;6.65;;;;;;;20.89;57.58;101942.28;6045878;23;20019;-67
2022/06/17 06:40:41;;;;;;;5.70;5.40;;;;;;;20.85;56.87;101939.97;6048701;23;20015;-67
2022/06/17 06:43:16;;;;;;;7.65;7.28;;;;;;;20.56;57.81;101931.44;6046882;23;20144;-66
2022/06/17 06:45:46;;;;;;;5.40;5.20;;;;;;;20.77;57.59;101937.88;6096566;23;20050;-67
2022/06/17 06:48:15;;;;;;;7.65;7.25;;;;;;;21.22;56.14;101923.78;6065716;23;20032;-67
2022/06/17 06:50:42;;;;;;;5.63;5.35;;;;;;;21.15;56.59;101925.22;6065478;23;20041;-69
2022/06/17 06:53:09;;;;;;;7.03;6.63;;;;;;;21.07;54.75;101905.31;6077015;23;20018;-67
2022/06/17 06:55:36;;;;;;;5.80;5.50;;;;;;;20.90;55.57;101924.44;6055691;23;20261;-67
2022/06/17 06:58:10;;;;;;;5.53;5.30;;;;;;;20.65;55.29;101888.97;6069075;23;20020;-74
2022/06/17 07:00:50;;;;;;;5.55;5.28;;;;;;;21.07;54.71;101926.66;6074599;23;20090;-71
2022/06/17 07:03:18;;;;;;;7.00;6.65;;;;;;;21.32;54.06;101935.44;6052646;23;20022;-71
2022/06/17 07:05:57;;;;;;;5.90;5.50;;;;;;;21.62;53.44;101934.88;6055963;23;20051;-73
2022/06/17 07:08:27;;;;;;;5.68;5.43;;;;;;;21.62;52.68;101934.03;6049554;23;20014;-73
2022/06/17 07:10:56;;;;;;;6.35;5.95;;;;;;;21.81;51.08;101914.69;6085367;23;20263;-72
2022/06/17 07:13:22;;;;;;;6.70;6.30;;;;;;;21.93;51.35;101935.09;6052962;23;20209;-74
2022/06/17 07:15:52;;;;;;;5.70;5.40;;;;;;;22.44;50.92;101936.31;6085077;23;20050;-71
2022/06/17 07:18:23;;;;;;;6.80;6.50;;;;;;;22.80;49.86;101929.72;6043866;23;20294;-73
2022/06/17 07:20:53;;;;;;;5.80;5.50;;;;;;;23.20;48.06;101917.47;6062021;23;20093;-67
2022/06/17 07:23:23;;;;;;;7.18;6.88;;;;;;;23.45;46.90;101927.75;6042721;23;20027;-67
2022/06/17 07:25:50;;;;;;;5.82;5.53;;;;;;;22.99;47.58;101930.81;6079208;23;20467;-67
2022/06/17 07:28:23;;;;;;;6.32;6.03;;;;;;;22.91;47.60;101923.44;6044530;23;20030;-69
2022/06/17 07:30:51;;;;;;;5.75;5.45;;;;;;;23.30;47.36;101902.28;6077693;23;20030;-72
2022/06/17 07:33:20;;;;;;;7.47;7.07;;;;;;;23.63;45.71;101919.91;6048551;23;20088;-67
2022/06/17 07:35:47;;;;;;;5.82;5.53;;;;;;;23.56;45.67;101933.97;6082358;23;21368;-67
2022/06/17 07:41:08;;;;;;;6.63;6.33;;;;;;;23.10;45.61;101912.88;6073993;23;20469;-66
2022/06/17 07:43:35;;;;;;;5.80;5.45;;;;;;;23.13;46.51;101909.09;6031002;23;20010;-67
2022/06/17 07:46:04;;;;;;;5.60;5.30;;;;;;;23.31;45.85;101936.09;6087772;23;20157;-67
2022/06/17 07:48:31;;;;;;;5.75;5.45;;;;;;;23.06;46.08;101911.44;6071052;23;20030;-72
2022/06/17 07:50:58;;;;;;;5.80;5.50;;;;;;;23.13;45.44;101913.59;6054969;23;20042;-70
2022/06/17 07:53:31;;;;;;;5.50;5.25;;;;;;;23.34;46.25;101925.13;6067068;23;20014;-67
2022/06/17 07:55:59;;;;;;;5.90;5.60;;;;;;;23.50;45.15;101919.28;6048814;23;20350;-70
2022/06/17 07:58:26;;;;;;;5.90;5.60;;;;;;;23.80;45.31;101947.06;6072654;23;20017;-67
2022/06/17 08:00:54;;;;;;;5.57;5.35;;;;;;;24.07;44.69;101947.28;6065066;23;20018;-69
2022/06/17 08:03:20;;;;;;;7.00;6.70;;;;;;;24.24;42.92;101929.66;6047745;23;20018;-67
2022/06/17 08:05:51;;;;;;;5.60;5.40;;;;;;;24.58;43.29;101953.44;6057849;23;20101;-66
2022/06/17 08:08:22;;;;;;;6.68;6.38;;;;;;;24.35;43.76;101947.44;6045101;23;20018;-70
2022/06/17 08:10:55;;;;;;;5.80;5.50;;;;;;;24.25;43.25;101941.22;6078680;23;20056;-67
2022/06/17 08:13:23;;;;;;;6.78;6.38;;;;;;;24.25;43.78;101936.72;6080821;23;20033;-69
2022/06/17 08:15:54;;;;;;;5.85;5.55;;;;;;;24.57;43.22;101945.53;6049659;23;20038;-73
2022/06/17 08:18:21;;;;;;;9.60;6.88;;;;;;;24.37;41.51;101888.28;6074181;23;20081;-72
2022/06/17 08:20:48;;;;;;;5.75;5.47;;;;;;;24.73;42.41;101936.91;6074876;23;20452;-67
2022/06/17 08:23:15;;;;;;;5.65;5.38;;;;;;;24.22;41.38;101912.03;6069308;23;20022;-69
2022/06/17 08:25:42;;;;;;;6.53;6.18;;;;;;;24.46;42.25;101907.06;6054994;23;20264;-69
2022/06/17 08:28:10;;;;;;;6.70;6.38;;;;;;;24.96;40.81;101919.50;6075149;23;20036;-67
2022/06/17 08:30:44;;;;;;;5.43;5.22;;;;;;;25.06;40.12;101925.69;6051777;23;20041;-68
2022/06/17 08:33:11;;;;;;;6.40;6.10;;;;;;;25.07;41.46;101905.88;6076406;23;20584;-67
2022/06/17 08:36:06;;;;;;;5.82;5.53;;;;;;;25.02;40.95;101918.91;6047271;23;20370;-67
2022/06/17 08:38:35;;;;;;;5.90;5.60;;;;;;;25.42;40.37;101908.91;6003099;23;20018;-67
2022/06/17 08:41:24;;;;;;;5.80;5.50;;;;;;;25.89;38.32;101919.56;6042970;23;20036;-67
2022/06/17 08:44:09;;;;;;;5.35;5.15;;;;;;;25.98;38.11;101917.81;6015262;23;20011;-67
2022/06/17 08:46:53;;;;;;;5.80;5.50;;;;;;;26.19;37.70;101920.25;6013790;23;20068;-67
2022/06/17 08:49:57;;;;;;;6.53;6.15;;;;;;;25.99;37.55;101906.91;6031972;23;20385;-67
2022/06/17 08:52:39;;;;;;;6.43;6.13;;;;;;;25.84;36.88;101890.44;6018143;23;20018;-74
2022/06/17 08:55:35;;;;;;;6.65;6.22;;;;;;;25.70;37.14;101895.47;6017613;23;20101;-69
2022/06/17 08:58:20;;;;;;;5.85;5.55;;;;;;;25.65;36.05;101893.22;6051849;23;20101;-75
2022/06/17 09:01:07;;;;;;;5.55;5.35;;;;;;;25.54;37.32;101853.97;6016544;23;20142;-67
2022/06/17 09:03:52;;;;;;;5.65;5.38;;;;;;;25.83;36.90;101898.66;6016604;23;20037;-67
2022/06/17 09:06:41;;;;;;;5.88;5.57;;;;;;;25.47;37.76;101896.69;6050110;23;20014;-67
2022/06/17 09:09:16;;;;;;;5.78;5.47;;;;;;;25.72;37.91;101899.72;6022333;23;20021;-68
2022/06/17 09:12:34;;;;;;;5.63;5.32;;;;;;;25.65;37.71;101901.28;6047125;23;20280;-72
2022/06/17 09:15:28;;;;;;;5.72;5.43;;;;;;;26.22;37.52;101893.88;5988904;23;20190;-71
2022/06/17 09:17:57;;;;;;;5.70;5.40;;;;;;;26.65;37.29;101897.63;6051771;23;20041;-73
2022/06/17 09:20:32;;;;;;;5.95;5.65;;;;;;;26.37;35.90;101829.56;6047677;23;20026;-70
2022/06/17 09:23:02;;;;;;;5.70;5.30;;;;;;;26.89;35.61;101896.13;6024721;23;20082;-71
2022/06/17 09:25:38;;;;;;;5.85;5.55;;;;;;;26.68;36.31;101869.53;6048074;23;20340;-71
2022/06/17 09:28:10;;;;;;;5.97;5.68;;;;;;;27.16;35.34;101892.41;6016216;23;20200;-68
2022/06/17 09:30:44;;;;;;;6.03;5.72;;;;;;;26.36;36.35;101894.31;6050849;23;20049;-66
2022/06/17 09:33:40;;;;;;;6.70;6.40;;;;;;;25.99;37.90;101876.50;6012129;23;20642;-67
2022/06/17 09:36:17;;;;;;;6.03;5.72;;;;;;;26.25;38.10;101879.25;6028261;23;20033;-66
2022/06/17 09:39:04;;;;;;;6.57;6.07;;;;;;;26.03;35.77;101819.53;6020782;23;20511;-69
2022/06/17 09:41:38;;;;;;;5.50;5.30;;;;;;;26.33;35.68;101876.63;6021908;23;20074;-69
2022/06/17 09:44:18;;;;;;;6.13;5.82;;;;;;;25.84;36.27;101726.38;6052511;23;20082;-69
2022/06/17 09:46:59;;;;;;;5.53;5.32;;;;;;;26.89;35.37;101871.03;6019742;23;20023;-67
2022/06/17 09:49:39;;;;;;;6.65;6.35;;;;;;;27.02;34.36;101866.03;6044889;23;20010;-67
2022/06/17 09:52:12;;;;;;;6.50;6.20;;;;;;;27.22;34.10;101880.13;6025626;23;20091;-66
2022/06/17 09:54:59;;;;;;;5.53;5.32;;;;;;;27.03;33.71;101844.34;6049500;23;20514;-69
2022/06/17 09:57:38;;;;;;;5.90;5.60;;;;;;;27.28;32.92;101873.28;6013208;23;20019;-68
2022/06/17 10:00:09;;;;;;;5.78;5.47;;;;;;;27.18;32.74;101871.53;6055410;23;20042;-73
2022/06/17 10:02:48;;;;;;;5.70;5.40;;;;;;;26.96;32.47;101850.53;6023988;23;20035;-69
2022/06/17 10:05:44;;;;;;;7.25;6.85;;;;;;;26.97;33.73;101858.44;6048962;23;20016;-67
2022/06/17 10:08:29;;;;;;;6.93;6.60;;;;;;;27.15;33.51;101854.84;5985787;23;20312;-69
2022/06/17 10:11:11;;;;;;;5.90;5.60;;;;;;;27.52;33.79;101857.19;6051122;23;20405;-67
2022/06/17 10:13:50;;;;;;;5.88;5.57;;;;;;;27.22;32.83;101866.66;6038785;23;20035;-67
2022/06/17 10:19:47;;;;;;;7.10;6.70;;;;;;;27.06;33.76;101851.25;6042606;23;20022;-67
2022/06/17 10:22:43;;;;;;;6.88;6.57;;;;;;;27.43;32.66;101852.81;5984946;23;20066;-67
2022/06/17 10:25:42;;;;;;;6.95;6.57;;;;;;;27.62;32.69;101848.97;6030366;23;20014;-67
2022/06/17 10:28:33;;;;;;;6.22;5.93;;;;;;;27.73;32.07;101848.69;6010695;23;20038;-67
2022/06/17 10:31:08;;;;;;;5.68;5.38;;;;;;;27.21;31.74;101724.84;6052632;23;20431;-67
2022/06/17 10:33:39;;;;;;;5.70;5.40;;;;;;;27.53;31.68;101815.75;6026959;23;20084;-67
2022/06/17 10:36:06;;;;;;;5.80;5.53;;;;;;;27.72;32.00;101852.38;6050547;23;20022;-67
2022/06/17 10:38:39;;;;;;;6.00;5.70;;;;;;;27.52;31.02;101859.06;6052177;23;20024;-67
2022/06/17 10:41:06;;;;;;;5.80;5.50;;;;;;;27.71;30.59;101869.56;6077741;23;20084;-67
2022/06/17 10:43:38;;;;;;;5.70;5.40;;;;;;;27.96;30.93;101864.25;6048972;23;20014;-69
2022/06/17 10:46:10;;;;;;;5.65;5.38;;;;;;;28.33;31.19;101860.25;6053565;23;20022;-67
2022/06/17 10:48:39;;;;;;;5.60;5.38;;;;;;;28.55;31.07;101861.47;6047742;23;20670;-67
2022/06/17 10:51:08;;;;;;;6.10;5.80;;;;;;;27.71;30.94;101717.69;6053100;23;20113;-67
2022/06/17 10:53:54;;;;;;;5.70;5.40;;;;;;;28.42;30.99;101856.53;6036985;23;20472;-67
2022/06/17 10:56:26;;;;;;;7.22;6.93;;;;;;;28.13;28.99;101760.72;6050696;23;20377;-67
2022/06/17 10:59:04;;;;;;;5.68;5.40;;;;;;;28.59;29.75;101771.81;6053836;23;20014;-67
2022/06/17 11:01:45;;;;;;;5.97;5.55;;;;;;;28.97;29.52;101858.50;6076715;23;20032;-68
2022/06/17 11:04:17;;;;;;;6.88;6.57;;;;;;;28.84;30.41;101869.00;6059962;23;20009;-68
2022/06/17 11:06:59;;;;;;;6.05;5.65;;;;;;;29.14;30.12;101848.50;6084258;23;20060;-70
2022/06/17 11:09:45;;;;;;;5.95;5.65;;;;;;;29.30;30.13;101838.63;6065952;23;20093;-70
2022/06/17 11:12:22;;;;;;;6.80;6.50;;;;;;;29.68;28.98;101845.03;6072879;23;20096;-68
2022/06/17 11:15:03;;;;;;;5.82;5.53;;;;;;;29.70;28.04;101842.97;6062703;23;20189;-68
2022/06/17 11:17:40;;;;;;;6.00;5.60;;;;;;;29.78;28.54;101850.25;6081633;23;20228;-68
2022/06/17 11:20:26;;;;;;;6.68;6.38;;;;;;;29.88;29.35;101833.78;6047878;23;20326;-67
2022/06/17 11:23:17;;;;;;;7.35;6.95;;;;;;;30.24;27.36;101828.56;6068388;23;20442;-68
2022/06/17 11:25:46;;;;;;;5.95;5.65;;;;;;;30.11;28.17;101810.25;6059922;23;20089;-67
2022/06/17 11:28:35;;;;;;;7.20;6.80;;;;;;;30.27;27.22;101839.06;6047263;23;20171;-67
2022/06/17 11:31:04;;;;;;;5.78;5.50;;;;;;;29.17;27.42;101610.25;6081754;23;20097;-68
2022/06/17 11:33:53;;;;;;;6.30;6.00;;;;;;;30.67;28.23;101825.31;6078815;23;20030;-69
2022/06/17 11:36:33;;;;;;;6.97;6.68;;;;;;;30.60;27.76;101823.34;6078478;23;20029;-69
2022/06/17 11:39:25;;;;;;;6.00;5.70;;;;;;;29.98;27.94;101808.13;6045756;23;20079;-70
2022/06/17 11:41:51;;;;;;;5.80;5.50;;;;;;;30.03;27.00;101799.50;6077283;23;20029;-67
2022/06/17 11:44:20;;;;;;;6.88;6.57;;;;;;;30.26;27.56;101782.38;6014259;23;20018;-67
2022/06/17 11:46:54;;;;;;;5.80;5.50;;;;;;;30.61;26.96;101808.78;6078549;23;20014;-72
2022/06/17 11:49:22;;;;;;;7.15;6.75;;;;;;;30.88;26.95;101802.91;6043393;23;20019;-68
2022/06/17 11:52:00;;;;;;;5.88;5.57;;;;;;;30.84;26.12;101801.59;6082923;23;20081;-67
2022/06/17 11:54:46;;;;;;;6.18;5.88;;;;;;;30.87;26.67;101788.50;6049229;23;20045;-72
2022/06/17 11:57:26;;;;;;;6.88;6.57;;;;;;;30.86;25.88;101791.41;6074426;23;20014;-72
2022/06/17 11:59:56;;;;;;;5.70;5.40;;;;;;;30.88;26.53;101786.63;6051659;23;20020;-67
2022/06/17 12:02:22;;;;;;;7.30;6.90;;;;;;;30.38;27.14;101797.16;6075133;23;20009;-67
2022/06/17 12:04:50;;;;;;;5.70;5.40;;;;;;;30.36;27.41;101782.97;6049281;23;20015;-67